Time;durP1;ratioP1;P1;durP2;ratioP2;P2;SDS_P1;SDS_P2;PMS_P1;PMS_P2;Temp;Humidity;BMP_temperature;BMP_pressure;BME280_temperature;BME280_humidity;BME280_pressure;Samples;Min_cycle;Max_cycle;Signal;HPM_P1;HPM_P2
2021/12/19 00:03:59;;;;;;;9.13;8.10;;;;;;;;;;10419027;28;20041;-84
2021/12/19 00:09:01;;;;;;;5.57;4.43;;;;;;;;;;10419010;28;20124;-84
2021/12/19 00:14:02;;;;;;;4.90;4.40;;;;;;;;;;10436288;28;20096;-85
2021/12/19 00:19:03;;;;;;;4.43;3.38;;;;;;;;;;10418335;28;20080;-82
2021/12/19 00:24:04;;;;;;;2.40;1.92;;;;;;;;;;10420797;28;20030;-82
2021/12/19 00:29:06;;;;;;;3.42;3.08;;;;;;;;;;10445660;28;20065;-82
2021/12/19 00:34:07;;;;;;;3.67;2.88;;;;;;;;;;10423502;28;20041;-82
2021/12/19 00:39:08;;;;;;;2.80;2.40;;;;;;;;;;10439193;28;20037;-82
2021/12/19 00:44:11;;;;;;;2.53;2.15;;;;;;;;;;10421045;28;20395;-83
2021/12/19 00:49:12;;;;;;;3.13;2.30;;;;;;;;;;10422582;28;20029;-83
2021/12/19 00:54:13;;;;;;;2.33;1.90;;;;;;;;;;10421538;28;20101;-83
2021/12/19 00:59:15;;;;;;;4.22;3.42;;;;;;;;;;10438306;28;20039;-83
2021/12/19 01:04:17;;;;;;;3.28;2.75;;;;;;;;;;10419615;28;20118;-83
2021/12/19 01:09:18;;;;;;;5.30;4.40;;;;;;;;;;10419001;28;20038;-83
2021/12/19 01:14:20;;;;;;;4.15;2.88;;;;;;;;;;10419592;28;20549;-83
2021/12/19 01:19:22;;;;;;;4.00;2.58;;;;;;;;;;10435644;28;20051;-84
2021/12/19 01:24:23;;;;;;;3.72;2.78;;;;;;;;;;10406357;28;20089;-83
2021/12/19 01:29:24;;;;;;;2.97;2.15;;;;;;;;;;10407744;28;20488;-83
2021/12/19 01:34:25;;;;;;;4.53;3.70;;;;;;;;;;10408369;28;20400;-82
2021/12/19 01:39:26;;;;;;;3.28;2.55;;;;;;;;;;10409952;28;20038;-82
2021/12/19 01:44:27;;;;;;;8.77;5.20;;;;;;;;;;10408925;28;20038;-83
2021/12/19 01:49:28;;;;;;;;;;;;;;;;;;10410914;28;20551;-83
2021/12/19 01:54:29;;;;;;;5.85;5.10;;;;;;;;;;10429063;28;19964;-83
2021/12/19 01:59:30;;;;;;;4.60;3.95;;;;;;;;;;10413445;28;20040;-82
2021/12/19 02:04:33;;;;;;;;;;;;;;;;;;10413156;28;20132;-82
2021/12/19 02:09:33;;;;;;;3.75;3.03;;;;;;;;;;10413586;28;20059;-83
2021/12/19 02:14:34;;;;;;;;;;;;;;;;;;10413621;28;20103;-82
2021/12/19 02:19:36;;;;;;;4.07;2.75;;;;;;;;;;10412849;28;19905;-82
2021/12/19 02:24:37;;;;;;;2.88;2.30;;;;;;;;;;10413507;28;20038;-82
2021/12/19 02:29:38;;;;;;;2.42;1.83;;;;;;;;;;10414154;28;20096;-83
2021/12/19 02:34:43;;;;;;;;;;;;;;;;;;10459772;22;20053;-83
2021/12/19 02:40:21;;;;;;;1.80;1.50;;;;;;;;;;10451495;28;20357;-82
2021/12/19 02:50:30;;;;;;;2.47;1.70;;;;;;;;;;10470277;28;20040;-82
2021/12/19 02:55:32;;;;;;;;;;;;;;;;;;10450927;28;20383;-82
2021/12/19 03:00:33;;;;;;;2.28;1.80;;;;;;;;;;10451574;28;19908;-82
2021/12/19 03:05:34;;;;;;;4.10;3.00;;;;;;;;;;10450114;28;20479;-82
2021/12/19 03:21:17;;;;;;;2.85;1.63;;;;;;;;;;10468796;28;20037;-82
2021/12/19 03:26:18;;;;;;;1.63;1.30;;;;;;;;;;10449556;28;20068;-83
2021/12/19 03:31:19;;;;;;;;;;;;;;;;;;10450200;28;20035;-82
2021/12/19 03:36:20;;;;;;;1.70;1.40;;;;;;;;;;10450318;28;19905;-83
2021/12/19 03:41:22;;;;;;;1.60;1.10;;;;;;;;;;10468917;28;20044;-83
2021/12/19 03:46:23;;;;;;;2.08;1.40;;;;;;;;;;10467742;28;20112;-83
2021/12/19 03:51:25;;;;;;;1.90;1.65;;;;;;;;;;10449466;28;20043;-83
2021/12/19 03:56:26;;;;;;;1.60;1.33;;;;;;;;;;10452287;28;20037;-83
2021/12/19 04:01:27;;;;;;;1.60;1.30;;;;;;;;;;10455156;28;20025;-82
2021/12/19 04:06:28;;;;;;;2.00;1.30;;;;;;;;;;10456663;28;20392;-82
2021/12/19 04:11:30;;;;;;;1.35;1.10;;;;;;;;;;10457615;28;20066;-82
2021/12/19 04:16:31;;;;;;;1.15;1.00;;;;;;;;;;10457724;28;20029;-81
2021/12/19 04:21:32;;;;;;;1.33;1.13;;;;;;;;;;10456011;28;20037;-82
2021/12/19 04:26:33;;;;;;;2.20;1.65;;;;;;;;;;10457328;28;20512;-82
2021/12/19 04:31:34;;;;;;;2.13;1.45;;;;;;;;;;10456203;28;20041;-81
2021/12/19 04:36:40;;;;;;;1.30;1.10;;;;;;;;;;10455701;28;20399;-82
2021/12/19 04:42:15;;;;;;;1.83;1.40;;;;;;;;;;10474065;28;20047;-81
2021/12/19 04:52:58;;;;;;;2.05;1.70;;;;;;;;;;10475970;28;20041;-83
2021/12/19 04:58:12;;;;;;;1.40;1.10;;;;;;;;;;10473868;28;20029;-83
2021/12/19 05:03:41;;;;;;;1.45;1.02;;;;;;;;;;10459091;28;20043;-83
2021/12/19 05:14:13;;;;;;;0.75;0.60;;;;;;;;;;10478347;28;20033;-83
2021/12/19 05:19:30;;;;;;;1.23;1.02;;;;;;;;;;10456741;28;20033;-83
2021/12/19 05:29:38;;;;;;;1.75;1.13;;;;;;;;;;10495457;28;20040;-83
2021/12/19 05:34:40;;;;;;;1.75;1.20;;;;;;;;;;10482128;28;20076;-83
2021/12/19 05:45:19;;;;;;;1.40;1.25;;;;;;;;;;10501545;28;20021;-81
2021/12/19 05:50:21;;;;;;;2.55;1.35;;;;;;;;;;10472906;28;20092;-82
2021/12/19 05:55:22;;;;;;;1.40;0.93;;;;;;;;;;10452948;28;20024;-83
2021/12/19 06:00:24;;;;;;;;;;;;;;;;;;10481984;28;20044;-83
2021/12/19 06:05:25;;;;;;;0.70;0.60;;;;;;;;;;10482404;28;19904;-82
2021/12/19 06:10:28;;;;;;;2.40;1.67;;;;;;;;;;10477264;28;20055;-82
2021/12/19 06:15:29;;;;;;;1.42;1.00;;;;;;;;;;10458936;28;20029;-82
2021/12/19 06:20:31;;;;;;;1.25;0.63;;;;;;;;;;10455934;28;20033;-82
2021/12/19 06:25:32;;;;;;;1.90;0.90;;;;;;;;;;10470515;28;20029;-82
2021/12/19 06:30:33;;;;;;;1.25;0.80;;;;;;;;;;10452826;28;20037;-83
2021/12/19 06:35:34;;;;;;;1.10;0.85;;;;;;;;;;10452258;28;20076;-83
2021/12/19 06:40:37;;;;;;;2.00;1.13;;;;;;;;;;10451550;28;20454;-82
2021/12/19 06:45:38;;;;;;;0.98;0.77;;;;;;;;;;10451467;28;20041;-83
2021/12/19 06:50:39;;;;;;;1.40;1.00;;;;;;;;;;10469628;28;20037;-83
2021/12/19 06:55:41;;;;;;;1.30;0.73;;;;;;;;;;10468184;28;20079;-85
2021/12/19 07:00:43;;;;;;;2.22;1.13;;;;;;;;;;10450479;28;20082;-83
2021/12/19 07:05:44;;;;;;;0.98;0.60;;;;;;;;;;10449891;28;20037;-83
2021/12/19 07:10:45;;;;;;;0.80;0.65;;;;;;;;;;10449753;28;20119;-83
2021/12/19 07:15:46;;;;;;;;;;;;;;;;;;10450477;28;20121;-83
2021/12/19 07:20:47;;;;;;;1.10;0.90;;;;;;;;;;10450336;28;19911;-82
2021/12/19 07:25:48;;;;;;;;;;;;;;;;;;10450846;28;20108;-82
2021/12/19 07:30:49;;;;;;;2.05;1.58;;;;;;;;;;10469246;28;19954;-83
2021/12/19 07:35:50;;;;;;;;;;;;;;;;;;10449527;28;20074;-83
2021/12/19 07:40:51;;;;;;;;;;;;;;;;;;10452962;28;20366;-83
2021/12/19 07:45:52;;;;;;;1.50;1.00;;;;;;;;;;10457311;28;19912;-83
2021/12/19 07:50:54;;;;;;;;;;;;;;;;;;10475424;28;20036;-83
2021/12/19 07:55:55;;;;;;;2.60;1.70;;;;;;;;;;10462220;28;19905;-83
2021/12/19 08:00:56;;;;;;;;;;;;;;;;;;10464274;28;20036;-83
2021/12/19 08:05:57;;;;;;;2.33;1.52;;;;;;;;;;10462144;28;19905;-83
2021/12/19 08:16:17;;;;;;;2.72;1.67;;;;;;;;;;10477223;28;20037;-83
2021/12/19 08:21:18;;;;;;;;;;;;;;;;;;10455929;28;20123;-83
2021/12/19 08:26:20;;;;;;;1.73;1.30;;;;;;;;;;10455938;28;19905;-83
2021/12/19 08:31:24;;;;;;;1.77;0.80;;;;;;;;;;10473544;28;20044;-83
2021/12/19 08:36:25;;;;;;;1.02;0.75;;;;;;;;;;10471619;28;20045;-83
2021/12/19 08:41:27;;;;;;;0.80;0.63;;;;;;;;;;10461053;28;20056;-83
2021/12/19 08:46:32;;;;;;;0.70;0.70;;;;;;;;;;10491853;28;20021;-80
2021/12/19 08:51:34;;;;;;;1.00;0.68;;;;;;;;;;10488018;28;20055;-82
2021/12/19 08:56:35;;;;;;;1.58;1.10;;;;;;;;;;10490882;28;20059;-82
2021/12/19 09:01:36;;;;;;;1.35;0.95;;;;;;;;;;10454269;28;20115;-83
2021/12/19 09:06:37;;;;;;;1.95;1.58;;;;;;;;;;10452264;28;20090;-83
2021/12/19 09:11:38;;;;;;;0.70;0.70;;;;;;;;;;10452808;28;20033;-84
2021/12/19 09:16:39;;;;;;;1.00;0.70;;;;;;;;;;10452596;28;20101;-84
2021/12/19 09:21:41;;;;;;;1.02;0.60;;;;;;;;;;10451433;28;20068;-83
2021/12/19 09:26:42;;;;;;;1.38;0.75;;;;;;;;;;10453042;28;20035;-83
2021/12/19 09:31:42;;;;;;;;;;;;;;;;;;10457250;28;20450;-83
2021/12/19 09:36:43;;;;;;;1.27;0.57;;;;;;;;;;10454125;28;19909;-82
2021/12/19 09:41:45;;;;;;;;;;;;;;;;;;10454742;28;20118;-84
2021/12/19 09:46:47;;;;;;;0.55;0.40;;;;;;;;;;10462219;28;19908;-83
2021/12/19 09:51:48;;;;;;;0.47;0.32;;;;;;;;;;10462787;28;20045;-83
2021/12/19 09:56:49;;;;;;;0.68;0.50;;;;;;;;;;10465345;28;20043;-84
2021/12/19 10:01:51;;;;;;;1.30;0.40;;;;;;;;;;10474387;28;20036;-83
2021/12/19 10:07:08;;;;;;;0.47;0.40;;;;;;;;;;10456434;28;20032;-83
2021/12/19 10:12:36;;;;;;;0.50;0.38;;;;;;;;;;10451127;28;20060;-84
2021/12/19 10:17:37;;;;;;;0.60;0.40;;;;;;;;;;10451787;28;20039;-82
2021/12/19 10:22:40;;;;;;;0.47;0.40;;;;;;;;;;10451842;28;20057;-82
2021/12/19 10:27:48;;;;;;;0.43;0.40;;;;;;;;;;10471164;28;20060;-83
2021/12/19 10:32:50;;;;;;;0.98;0.55;;;;;;;;;;10454022;28;20483;-83
2021/12/19 10:37:51;;;;;;;0.57;0.40;;;;;;;;;;10471224;28;20037;-82
2021/12/19 10:42:58;;;;;;;;;;;;;;;;;;10452168;28;20061;-83
2021/12/19 10:48:08;;;;;;;0.63;0.50;;;;;;;;;;10452330;28;19908;-82
2021/12/19 10:53:09;;;;;;;0.43;0.40;;;;;;;;;;10452110;28;20041;-83
2021/12/19 10:58:22;;;;;;;0.93;0.50;;;;;;;;;;10464103;28;20072;-82
2021/12/19 11:03:37;;;;;;;0.50;0.50;;;;;;;;;;10457113;28;20029;-82
2021/12/19 11:08:39;;;;;;;0.60;0.40;;;;;;;;;;10451887;28;20044;-83
2021/12/19 11:13:40;;;;;;;0.50;0.40;;;;;;;;;;10469815;28;20079;-82
2021/12/19 11:18:41;;;;;;;;;;;;;;;;;;10460010;28;20525;-82
2021/12/19 11:23:42;;;;;;;0.60;0.40;;;;;;;;;;10459623;28;19927;-84
2021/12/19 11:28:43;;;;;;;0.40;0.30;;;;;;;;;;10458157;28;20052;-83
2021/12/19 11:34:03;;;;;;;0.38;0.30;;;;;;;;;;10458266;28;20044;-84
2021/12/19 11:39:05;;;;;;;0.30;0.30;;;;;;;;;;10458338;28;20045;-84
2021/12/19 11:44:09;;;;;;;0.30;0.30;;;;;;;;;;10456992;28;20037;-83
2021/12/19 11:49:11;;;;;;;0.32;0.30;;;;;;;;;;10458471;28;20061;-82
2021/12/19 11:54:15;;;;;;;1.35;0.95;;;;;;;;;;10457219;28;20025;-82
2021/12/19 11:59:20;;;;;;;0.52;0.40;;;;;;;;;;10456051;28;20521;-82
2021/12/19 12:04:24;;;;;;;0.43;0.30;;;;;;;;;;10455733;28;20043;-82
2021/12/19 12:09:28;;;;;;;1.58;0.88;;;;;;;;;;10457427;28;20033;-83
2021/12/19 12:14:32;;;;;;;1.65;0.70;;;;;;;;;;10472952;28;20029;-83
2021/12/19 12:19:50;;;;;;;0.98;0.60;;;;;;;;;;10456093;28;20040;-82
2021/12/19 12:25:11;;;;;;;0.90;0.47;;;;;;;;;;10456639;28;20133;-83
2021/12/19 12:30:14;;;;;;;0.40;0.35;;;;;;;;;;10454551;28;20064;-83
2021/12/19 12:35:16;;;;;;;0.50;0.40;;;;;;;;;;10453120;28;20449;-83
2021/12/19 12:40:30;;;;;;;1.17;0.50;;;;;;;;;;10454493;28;20494;-83
2021/12/19 12:45:31;;;;;;;0.70;0.50;;;;;;;;;;10463841;28;20113;-81
2021/12/19 12:50:32;;;;;;;1.35;0.98;;;;;;;;;;10491146;28;20052;-83
2021/12/19 12:55:33;;;;;;;0.63;0.50;;;;;;;;;;10457127;28;20027;-83
2021/12/19 13:00:34;;;;;;;0.82;0.70;;;;;;;;;;10461064;28;20040;-83
2021/12/19 13:05:35;;;;;;;2.55;1.00;;;;;;;;;;10453574;28;20037;-83
2021/12/19 13:10:36;;;;;;;0.77;0.60;;;;;;;;;;10470737;28;20446;-82
2021/12/19 13:15:37;;;;;;;1.20;0.88;;;;;;;;;;10474031;28;20124;-83
2021/12/19 13:20:38;;;;;;;1.63;1.08;;;;;;;;;;10455679;28;20036;-83
2021/12/19 13:25:44;;;;;;;3.38;2.05;;;;;;;;;;10455578;28;20047;-83
2021/12/19 13:30:46;;;;;;;1.55;0.85;;;;;;;;;;10456916;28;20037;-82
2021/12/19 13:35:52;;;;;;;2.20;1.30;;;;;;;;;;10453537;28;20432;-82
2021/12/19 13:41:04;;;;;;;2.17;0.95;;;;;;;;;;10455315;28;20131;-82
2021/12/19 13:46:10;;;;;;;1.77;0.80;;;;;;;;;;10453866;28;20040;-83
2021/12/19 13:51:14;;;;;;;1.65;0.90;;;;;;;;;;10471363;28;20239;-82
2021/12/19 13:56:20;;;;;;;2.15;1.10;;;;;;;;;;10453629;28;20033;-83
2021/12/19 14:01:22;;;;;;;1.50;0.93;;;;;;;;;;10453527;28;20035;-82
2021/12/19 14:06:26;;;;;;;1.63;0.93;;;;;;;;;;10458879;28;20481;-82
2021/12/19 14:11:28;;;;;;;1.63;1.02;;;;;;;;;;10452174;28;20033;-83
2021/12/19 14:16:30;;;;;;;1.45;0.70;;;;;;;;;;10449915;28;20033;-83
2021/12/19 14:21:36;;;;;;;2.47;1.20;;;;;;;;;;10449790;28;20033;-82
2021/12/19 14:26:38;;;;;;;2.13;1.20;;;;;;;;;;10468987;28;20027;-82
2021/12/19 14:31:52;;;;;;;1.25;0.95;;;;;;;;;;10453557;28;20537;-83
2021/12/19 14:36:54;;;;;;;2.10;1.08;;;;;;;;;;10450858;28;20072;-82
2021/12/19 14:42:12;;;;;;;1.70;0.90;;;;;;;;;;10449924;28;20029;-83
2021/12/19 14:47:13;;;;;;;1.60;0.65;;;;;;;;;;10449047;28;20044;-83
2021/12/19 14:52:15;;;;;;;1.38;0.75;;;;;;;;;;10466851;28;20035;-82
2021/12/19 14:57:19;;;;;;;1.25;0.80;;;;;;;;;;10448999;28;20029;-83
2021/12/19 15:02:20;;;;;;;1.10;0.90;;;;;;;;;;10449980;28;20037;-83
2021/12/19 15:07:24;;;;;;;1.55;0.90;;;;;;;;;;10452447;28;20041;-82
2021/12/19 15:12:26;;;;;;;0.90;0.70;;;;;;;;;;10448405;28;20029;-83
2021/12/19 15:17:27;;;;;;;1.10;0.73;;;;;;;;;;10447176;28;20132;-83
2021/12/19 15:22:28;;;;;;;1.90;1.05;;;;;;;;;;10448422;28;20047;-83
2021/12/19 15:27:29;;;;;;;0.68;0.68;;;;;;;;;;10446955;28;20075;-83
2021/12/19 15:32:30;;;;;;;2.28;1.40;;;;;;;;;;10448264;28;20152;-83
2021/12/19 15:37:31;;;;;;;1.60;0.88;;;;;;;;;;10447005;28;20510;-83
2021/12/19 15:42:32;;;;;;;1.33;0.80;;;;;;;;;;10447523;28;20219;-82
2021/12/19 15:47:33;;;;;;;1.50;0.88;;;;;;;;;;10448767;28;20111;-83
2021/12/19 15:52:34;;;;;;;3.25;1.75;;;;;;;;;;10448498;28;20063;-82
2021/12/19 15:57:35;;;;;;;1.40;1.05;;;;;;;;;;10449454;28;20029;-83
2021/12/19 16:02:37;;;;;;;2.10;1.60;;;;;;;;;;10453039;28;20036;-81
2021/12/19 16:07:38;;;;;;;1.55;1.00;;;;;;;;;;10462923;28;20037;-82
2021/12/19 16:12:39;;;;;;;3.40;1.30;;;;;;;;;;10476087;28;20029;-81
2021/12/19 16:17:40;;;;;;;3.33;1.85;;;;;;;;;;10456556;28;20403;-81
2021/12/19 16:22:41;;;;;;;1.48;0.90;;;;;;;;;;10460671;28;20120;-82
2021/12/19 16:27:42;;;;;;;2.03;1.30;;;;;;;;;;10459129;28;20132;-82
2021/12/19 16:32:44;;;;;;;1.52;1.30;;;;;;;;;;10475275;28;20040;-82
2021/12/19 16:37:45;;;;;;;2.83;1.30;;;;;;;;;;10456510;28;20108;-83
2021/12/19 16:48:06;;;;;;;2.67;1.20;;;;;;;;;;10491788;28;20025;-82
2021/12/19 16:53:07;;;;;;;1.48;1.10;;;;;;;;;;10453802;28;20460;-83
2021/12/19 16:58:09;;;;;;;2.22;1.20;;;;;;;;;;10451663;28;20071;-82
2021/12/19 17:03:10;;;;;;;2.67;1.38;;;;;;;;;;10454315;28;20090;-83
2021/12/19 17:08:11;;;;;;;2.28;1.13;;;;;;;;;;10472197;28;20041;-82
2021/12/19 17:13:25;;;;;;;1.25;1.08;;;;;;;;;;10452143;28;20029;-83
2021/12/19 17:18:27;;;;;;;1.77;1.20;;;;;;;;;;10452493;28;20059;-82
2021/12/19 17:23:28;;;;;;;2.72;1.42;;;;;;;;;;10470709;28;20112;-82
2021/12/19 17:28:29;;;;;;;2.78;1.48;;;;;;;;;;10452444;28;20052;-82
2021/12/19 17:33:30;;;;;;;2.03;1.30;;;;;;;;;;10456903;28;20048;-82
2021/12/19 17:38:31;;;;;;;2.58;1.52;;;;;;;;;;10462841;28;20037;-82
2021/12/19 17:43:32;;;;;;;1.77;1.27;;;;;;;;;;10492657;28;20438;-83
2021/12/19 17:48:33;;;;;;;1.48;1.10;;;;;;;;;;10458368;28;20033;-83
2021/12/19 17:53:34;;;;;;;1.92;0.90;;;;;;;;;;10476686;28;20032;-83
2021/12/19 17:58:36;;;;;;;3.30;1.55;;;;;;;;;;10473208;28;20035;-82
2021/12/19 18:03:40;;;;;;;1.55;1.17;;;;;;;;;;10474469;28;20118;-82
2021/12/19 18:08:41;;;;;;;2.45;1.40;;;;;;;;;;10459392;28;20470;-83
2021/12/19 18:13:42;;;;;;;1.80;1.10;;;;;;;;;;10463299;28;20055;-82
2021/12/19 18:18:43;;;;;;;3.13;2.00;;;;;;;;;;10463455;28;20040;-82
2021/12/19 18:23:44;;;;;;;2.00;1.50;;;;;;;;;;10456386;28;20131;-82
2021/12/19 18:28:45;;;;;;;2.33;1.27;;;;;;;;;;10454017;28;20049;-83
2021/12/19 18:33:49;;;;;;;2.35;1.40;;;;;;;;;;10466336;28;20076;-84
2021/12/19 18:39:08;;;;;;;2.15;1.20;;;;;;;;;;10504006;28;20017;-81
2021/12/19 18:44:16;;;;;;;2.88;1.95;;;;;;;;;;10469745;28;20098;-83
2021/12/19 18:49:36;;;;;;;1.80;1.08;;;;;;;;;;10450652;28;20033;-83
2021/12/19 19:00:26;;;;;;;2.78;1.20;;;;;;;;;;10303753;28;20521;-82
2021/12/19 19:05:33;;;;;;;3.42;2.20;;;;;;;;;;10419851;28;20039;-83
2021/12/19 19:10:34;;;;;;;3.85;2.33;;;;;;;;;;10466797;28;20040;-83
2021/12/19 19:15:35;;;;;;;2.15;1.40;;;;;;;;;;10448728;28;20029;-83
2021/12/19 19:20:37;;;;;;;3.15;2.22;;;;;;;;;;10449525;28;20037;-83
2021/12/19 19:25:38;;;;;;;2.80;1.70;;;;;;;;;;10450113;28;20120;-83
2021/12/19 19:30:41;;;;;;;2.92;1.70;;;;;;;;;;10448964;28;20036;-83
2021/12/19 19:35:43;;;;;;;2.28;1.55;;;;;;;;;;10451300;28;20410;-84
2021/12/19 19:40:53;;;;;;;3.40;2.08;;;;;;;;;;10476543;28;20025;-84
2021/12/19 19:51:14;;;;;;;2.72;1.77;;;;;;;;;;10475879;28;20434;-83
2021/12/19 19:56:15;;;;;;;2.00;1.20;;;;;;;;;;10476966;28;20025;-82
2021/12/19 20:01:16;;;;;;;2.13;1.45;;;;;;;;;;10458801;28;20037;-83
2021/12/19 20:06:17;;;;;;;2.88;1.60;;;;;;;;;;10483643;28;20067;-84
2021/12/19 20:11:18;;;;;;;2.28;1.30;;;;;;;;;;10461098;28;20088;-84
2021/12/19 20:16:20;;;;;;;1.90;1.17;;;;;;;;;;10461580;28;20075;-83
2021/12/19 20:21:21;;;;;;;4.20;2.03;;;;;;;;;;10474095;28;20031;-83
2021/12/19 20:26:22;;;;;;;6.07;4.20;;;;;;;;;;10458380;28;20037;-83
2021/12/19 20:31:26;;;;;;;4.45;2.78;;;;;;;;;;10475848;28;20048;-83
2021/12/19 20:36:27;;;;;;;1.80;1.35;;;;;;;;;;10478326;28;20503;-82
2021/12/19 20:41:28;;;;;;;3.58;1.95;;;;;;;;;;10479567;28;20040;-83
2021/12/19 20:46:29;;;;;;;1.80;1.27;;;;;;;;;;10483557;28;20032;-82
2021/12/19 20:51:31;;;;;;;2.78;1.63;;;;;;;;;;10490051;28;20033;-83
2021/12/19 20:56:33;;;;;;;3.72;2.30;;;;;;;;;;10475954;28;20029;-82
2021/12/19 21:01:34;;;;;;;2.63;1.42;;;;;;;;;;10475259;28;20151;-82
2021/12/19 21:06:35;;;;;;;3.55;1.65;;;;;;;;;;10475918;28;20126;-81
2021/12/19 21:11:37;;;;;;;2.72;1.50;;;;;;;;;;10475836;28;20444;-82
